Harlem, MT (59526)

11:53 AM MDT on September 30, 2014 (GMT -0600)
farm | Change Station
CLOSE
Current Station
Personal Weather Station
Location: Hogeland, MT
Elevation: 3104 ft
Nearby Weather Stations

Elev 3104 ft 48.81 °N, 108.54 °W | Updated 18 seconds ago

Overcast
Overcast
63.3 °F
Feels Like 63.3 °F
N
15.4
Wind Variable Wind from West
Gusts 19.0 mph

Today
High -- | Low -- °F
--% Chance of Precip.
Yesterday
High -- | Low -- °F
Precip. -- in
7:13 AM 6:56 PM
Waxing Crescent, 38% visible
Pressure 29.61 in
Visibility 10.0 miles
Clouds Mostly Cloudy 10000 ft
Dew Point 49 °F
Humidity 60%
Rainfall 0.00 in
Snow Depth 0 in , 1 in , 0 in
UV 2 out of 12
Pollen 1.60 out of 12
Air Quality Not available.
Flu Activity Not available.
SPECI KHVR 301737Z 22016KT 10SM BKN100 19/09 A2961 RMK AO2 T01890089

More Conditions Fewer Conditions

Pressure 29.61 in
Visibility 10.0 miles
Clouds Mostly Cloudy 10000 ft
Dew Point 49 °F
Humidity 60%
Rainfall 0.00 in
Snow Depth 0 in , 1 in , 0 in
UV 2 out of 12
Pollen 1.60 out of 12
Air Quality Not available.
Flu Activity Not available.
SPECI KHVR 301737Z 22016KT 10SM BKN100 19/09 A2961 RMK AO2 T01890089

More Conditions Fewer Conditions

10-Day Weather Forecast

Almanac

Astronomy

Sep. 30, 2014 Rise Set
Actual Time 7:13 AM MDT 6:56 PM MDT
Civil Twilight 6:42 AM MDT 7:27 PM MDT
Nautical Twilight 6:05 AM MDT 8:03 PM MDT
Astronomical Twilight 5:28 AM MDT 8:41 PM MDT
Moon 1:46 PM MDT 11:07 PM MDT
Length of Visible Light 12h 45m
Length of Day
11h 42m
Tomorrow will be 3m 31s shorter.
Waxing Crescent, 38% of the Moon is Illuminated
Today
Waxing Crescent
Oct 1
First Quarter
Oct 8
Full
Oct 15
Last Quarter
Oct 23
New

Today's Extremes

State Highs State Lows

Community

WunderPhotos

Upload Photos

1,757,693 photos uploaded!

Nearby

Snow Depth

Station Depth Elevation
White Mill 0 in 8700 ft
Garver Creek 1 in 4250 ft
Placer Basin 0 in 8830 ft
Nevada Ridge 1 in 7020 ft
Albro Lake 3 in 8300 ft

Earthquake Activity

City Distance Mag. Time & Date
No recent earthquake activity has been reported nearby.
Minimum magnitude displayed is 2.5.

Coastal Water Temperatures

Place Temperature
No Stations Reporting

Nearby Weather Stations